sensor_id;sensor_type;location;lat;lon;timestamp;pressure;altitude;pressure_sealevel;temperature;humidity
28428;BME280;15662;49.128;8.520;2023-09-18T00:02:20;99686.09;;;27.03;45.47
28428;BME280;15662;49.128;8.520;2023-09-18T00:04:48;99682.19;;;27.06;45.37
28428;BME280;15662;49.128;8.520;2023-09-18T00:07:19;99672.16;;;27.06;45.44
28428;BME280;15662;49.128;8.520;2023-09-18T00:09:47;99667.03;;;27.03;45.54
28428;BME280;15662;49.128;8.520;2023-09-18T00:12:16;99662.94;;;26.99;45.59
28428;BME280;15662;49.128;8.520;2023-09-18T00:14:49;99662.31;;;27.05;45.61
28428;BME280;15662;49.128;8.520;2023-09-18T00:17:17;99664.19;;;27.05;45.40
28428;BME280;15662;49.128;8.520;2023-09-18T00:19:48;99666.91;;;27.05;45.62
28428;BME280;15662;49.128;8.520;2023-09-18T00:22:17;99652.75;;;27.01;45.39
28428;BME280;15662;49.128;8.520;2023-09-18T00:24:48;99654.78;;;26.99;45.57
28428;BME280;15662;49.128;8.520;2023-09-18T00:27:16;99639.16;;;27.01;45.37
28428;BME280;15662;49.128;8.520;2023-09-18T00:29:44;99640.19;;;27.00;45.36
28428;BME280;15662;49.128;8.520;2023-09-18T00:32:12;99635.75;;;26.99;45.39
28428;BME280;15662;49.128;8.520;2023-09-18T00:34:40;99636.09;;;27.04;45.27
28428;BME280;15662;49.128;8.520;2023-09-18T00:37:08;99628.47;;;26.99;45.30
28428;BME280;15662;49.128;8.520;2023-09-18T00:39:42;99624.38;;;27.04;45.21
28428;BME280;15662;49.128;8.520;2023-09-18T00:42:10;99636.09;;;27.04;45.23
28428;BME280;15662;49.128;8.520;2023-09-18T00:44:42;99622.50;;;27.04;45.40
28428;BME280;15662;49.128;8.520;2023-09-18T00:47:11;99618.25;;;27.01;45.45
28428;BME280;15662;49.128;8.520;2023-09-18T00:49:43;99620.13;;;27.01;45.36
28428;BME280;15662;49.128;8.520;2023-09-18T00:52:13;99604.63;;;26.93;45.40
28428;BME280;15662;49.128;8.520;2023-09-18T00:54:43;99622.50;;;26.96;45.47
28428;BME280;15662;49.128;8.520;2023-09-18T00:57:12;99617.06;;;26.96;45.54
28428;BME280;15662;49.128;8.520;2023-09-18T00:59:41;99613.13;;;26.98;45.35
28428;BME280;15662;49.128;8.520;2023-09-18T01:02:09;99626.59;;;27.00;45.57
28428;BME280;15662;49.128;8.520;2023-09-18T01:04:38;99628.47;;;26.99;45.82
28428;BME280;15662;49.128;8.520;2023-09-18T01:07:11;99634.53;;;26.93;45.69
28428;BME280;15662;49.128;8.520;2023-09-18T01:09:40;99634.88;;;26.90;45.91
28428;BME280;15662;49.128;8.520;2023-09-18T01:12:18;99647.28;;;26.93;45.91
28428;BME280;15662;49.128;8.520;2023-09-18T01:15:09;99636.50;;;26.83;45.96
28428;BME280;15662;49.128;8.520;2023-09-18T01:17:41;99642.31;;;26.88;46.04
28428;BME280;15662;49.128;8.520;2023-09-18T01:20:11;99651.69;;;26.94;45.95
28428;BME280;15662;49.128;8.520;2023-09-18T01:22:40;99654.59;;;26.92;46.16
28428;BME280;15662;49.128;8.520;2023-09-18T01:25:08;99646.44;;;26.92;46.09
28428;BME280;15662;49.128;8.520;2023-09-18T01:27:36;99662.75;;;26.92;46.12
28428;BME280;15662;49.128;8.520;2023-09-18T01:30:04;99648.97;;;26.94;46.09
28428;BME280;15662;49.128;8.520;2023-09-18T01:32:35;99668.53;;;26.97;45.97
28428;BME280;15662;49.128;8.520;2023-09-18T01:35:06;99677.72;;;26.96;45.99
28428;BME280;15662;49.128;8.520;2023-09-18T01:37:36;99682.63;;;26.93;46.15
28428;BME280;15662;49.128;8.520;2023-09-18T01:40:06;99691.13;;;26.90;45.82
28428;BME280;15662;49.128;8.520;2023-09-18T01:42:36;99692.09;;;26.89;46.21
28428;BME280;15662;49.128;8.520;2023-09-18T01:45:04;99676.81;;;26.88;46.04
28428;BME280;15662;49.128;8.520;2023-09-18T01:47:33;99670.06;;;26.92;46.02
28428;BME280;15662;49.128;8.520;2023-09-18T01:50:04;99672.09;;;26.90;45.92
28428;BME280;15662;49.128;8.520;2023-09-18T01:52:33;99667.50;;;26.90;45.76
28428;BME280;15662;49.128;8.520;2023-09-18T01:55:04;99657.53;;;26.73;46.12
28428;BME280;15662;49.128;8.520;2023-09-18T01:57:32;99664.72;;;26.82;45.85
28428;BME280;15662;49.128;8.520;2023-09-18T02:00:01;99663.06;;;26.89;45.74
28428;BME280;15662;49.128;8.520;2023-09-18T02:02:38;99674.81;;;26.90;45.94
28428;BME280;15662;49.128;8.520;2023-09-18T02:05:27;99690.94;;;26.91;45.68
28428;BME280;15662;49.128;8.520;2023-09-18T02:07:57;99737.56;;;26.96;45.70
28428;BME280;15662;49.128;8.520;2023-09-18T02:10:26;99748.44;;;26.96;45.93
28428;BME280;15662;49.128;8.520;2023-09-18T02:12:54;99741.28;;;26.95;45.90
28428;BME280;15662;49.128;8.520;2023-09-18T02:15:22;99750.31;;;26.96;45.86
28428;BME280;15662;49.128;8.520;2023-09-18T02:17:50;99766.44;;;26.97;46.13
28428;BME280;15662;49.128;8.520;2023-09-18T02:20:19;99755.88;;;26.94;46.36
28428;BME280;15662;49.128;8.520;2023-09-18T02:22:47;99745.16;;;26.93;46.59
28428;BME280;15662;49.128;8.520;2023-09-18T02:25:15;99749.22;;;26.89;46.68
28428;BME280;15662;49.128;8.520;2023-09-18T02:27:44;99741.91;;;26.89;47.00
28428;BME280;15662;49.128;8.520;2023-09-18T02:30:13;99731.19;;;26.88;47.08
28428;BME280;15662;49.128;8.520;2023-09-18T02:32:41;99723.22;;;26.86;47.14
28428;BME280;15662;49.128;8.520;2023-09-18T02:35:10;99718.78;;;26.85;47.27
28428;BME280;15662;49.128;8.520;2023-09-18T02:37:38;99716.94;;;26.86;47.39
28428;BME280;15662;49.128;8.520;2023-09-18T02:40:08;99709.78;;;26.85;47.46
28428;BME280;15662;49.128;8.520;2023-09-18T02:42:36;99693.59;;;26.83;47.59
28428;BME280;15662;49.128;8.520;2023-09-18T02:45:05;99684.28;;;26.86;47.66
28428;BME280;15662;49.128;8.520;2023-09-18T02:47:34;99679.00;;;26.84;47.82
28428;BME280;15662;49.128;8.520;2023-09-18T02:50:04;99666.59;;;26.82;47.81
28428;BME280;15662;49.128;8.520;2023-09-18T02:52:34;99652.47;;;26.78;47.82
28428;BME280;15662;49.128;8.520;2023-09-18T02:55:02;99663.03;;;26.81;48.04
28428;BME280;15662;49.128;8.520;2023-09-18T02:57:32;99667.44;;;26.82;47.94
28428;BME280;15662;49.128;8.520;2023-09-18T03:00:00;99666.41;;;26.83;48.20
28428;BME280;15662;49.128;8.520;2023-09-18T03:02:28;99658.44;;;26.82;48.10
28428;BME280;15662;49.128;8.520;2023-09-18T03:04:57;99653.16;;;26.80;48.32
28428;BME280;15662;49.128;8.520;2023-09-18T03:07:26;99661.47;;;26.79;48.23
28428;BME280;15662;49.128;8.520;2023-09-18T03:09:57;99674.84;;;26.72;48.59
28428;BME280;15662;49.128;8.520;2023-09-18T03:12:26;99688.63;;;26.70;48.55
28428;BME280;15662;49.128;8.520;2023-09-18T03:14:55;99697.25;;;26.66;48.46
28428;BME280;15662;49.128;8.520;2023-09-18T03:17:23;99705.41;;;26.66;48.40
28428;BME280;15662;49.128;8.520;2023-09-18T03:19:52;99703.16;;;26.61;48.61
28428;BME280;15662;49.128;8.520;2023-09-18T03:22:20;99692.59;;;26.58;48.80
28428;BME280;15662;49.128;8.520;2023-09-18T03:24:49;99690.81;;;26.49;48.78
28428;BME280;15662;49.128;8.520;2023-09-18T03:27:18;99716.84;;;26.52;48.92
28428;BME280;15662;49.128;8.520;2023-09-18T03:29:47;99719.19;;;26.46;49.05
28428;BME280;15662;49.128;8.520;2023-09-18T03:32:16;99730.19;;;26.45;49.00
28428;BME280;15662;49.128;8.520;2023-09-18T03:34:44;99756.81;;;26.41;49.20
28428;BME280;15662;49.128;8.520;2023-09-18T03:37:12;99787.72;;;26.40;49.31
28428;BME280;15662;49.128;8.520;2023-09-18T03:39:40;99771.53;;;26.39;49.33
28428;BME280;15662;49.128;8.520;2023-09-18T03:42:08;99763.84;;;26.34;49.18
28428;BME280;15662;49.128;8.520;2023-09-18T03:44:37;99778.84;;;26.38;49.50
28428;BME280;15662;49.128;8.520;2023-09-18T03:47:05;99788.00;;;26.37;49.25
28428;BME280;15662;49.128;8.520;2023-09-18T03:49:34;99789.03;;;26.36;49.27
28428;BME280;15662;49.128;8.520;2023-09-18T03:52:02;99795.06;;;26.30;49.52
28428;BME280;15662;49.128;8.520;2023-09-18T03:54:30;99788.63;;;26.31;49.54
28428;BME280;15662;49.128;8.520;2023-09-18T03:56:59;99777.06;;;26.29;49.80
28428;BME280;15662;49.128;8.520;2023-09-18T03:59:27;99791.66;;;26.28;50.23
28428;BME280;15662;49.128;8.520;2023-09-18T04:01:55;99786.50;;;26.25;50.64
28428;BME280;15662;49.128;8.520;2023-09-18T04:04:23;99792.13;;;26.23;50.87
28428;BME280;15662;49.128;8.520;2023-09-18T04:06:51;99779.72;;;26.21;51.34
28428;BME280;15662;49.128;8.520;2023-09-18T04:09:24;99742.44;;;26.13;51.27
28428;BME280;15662;49.128;8.520;2023-09-18T04:11:53;99751.44;;;26.14;51.72
28428;BME280;15662;49.128;8.520;2023-09-18T04:14:23;99738.31;;;26.09;52.01
28428;BME280;15662;49.128;8.520;2023-09-18T04:16:51;99702.63;;;26.04;51.93
28428;BME280;15662;49.128;8.520;2023-09-18T04:19:20;99703.81;;;26.02;52.30
28428;BME280;15662;49.128;8.520;2023-09-18T04:21:48;99693.25;;;25.98;52.29
28428;BME280;15662;49.128;8.520;2023-09-18T04:24:16;99669.44;;;25.92;52.19
28428;BME280;15662;49.128;8.520;2023-09-18T04:26:44;99646.16;;;25.90;52.64
28428;BME280;15662;49.128;8.520;2023-09-18T04:29:14;99638.84;;;25.90;52.71
28428;BME280;15662;49.128;8.520;2023-09-18T04:31:42;99614.59;;;25.89;52.55
28428;BME280;15662;49.128;8.520;2023-09-18T04:34:11;99602.19;;;25.86;52.64
28428;BME280;15662;49.128;8.520;2023-09-18T04:36:40;99594.81;;;25.79;53.00
28428;BME280;15662;49.128;8.520;2023-09-18T04:39:10;99600.84;;;25.72;53.04
28428;BME280;15662;49.128;8.520;2023-09-18T04:41:38;99606.25;;;25.72;53.04
28428;BME280;15662;49.128;8.520;2023-09-18T04:44:07;99600.97;;;25.71;53.36
28428;BME280;15662;49.128;8.520;2023-09-18T04:46:36;99597.28;;;25.72;53.20
28428;BME280;15662;49.128;8.520;2023-09-18T04:49:04;99594.84;;;25.69;53.09
28428;BME280;15662;49.128;8.520;2023-09-18T04:51:32;99599.56;;;25.77;53.00
28428;BME280;15662;49.128;8.520;2023-09-18T04:54:00;99599.22;;;25.80;53.05
28428;BME280;15662;49.128;8.520;2023-09-18T04:56:30;99587.34;;;25.81;53.03
28428;BME280;15662;49.128;8.520;2023-09-18T04:58:58;99590.22;;;25.79;53.24
28428;BME280;15662;49.128;8.520;2023-09-18T05:01:25;99597.34;;;25.80;53.02
28428;BME280;15662;49.128;8.520;2023-09-18T05:03:55;99605.50;;;25.80;53.36
28428;BME280;15662;49.128;8.520;2023-09-18T05:06:23;99605.38;;;25.82;53.07
28428;BME280;15662;49.128;8.520;2023-09-18T05:08:52;99604.34;;;25.83;53.35
28428;BME280;15662;49.128;8.520;2023-09-18T05:11:21;99609.63;;;25.84;53.19
28428;BME280;15662;49.128;8.520;2023-09-18T05:13:49;99600.63;;;25.84;53.26
28428;BME280;15662;49.128;8.520;2023-09-18T05:16:17;99596.91;;;25.85;53.09
28428;BME280;15662;49.128;8.520;2023-09-18T05:18:48;99598.22;;;25.81;53.23
28428;BME280;15662;49.128;8.520;2023-09-18T05:21:16;99616.22;;;25.82;53.17
28428;BME280;15662;49.128;8.520;2023-09-18T05:23:45;99624.13;;;25.75;53.63
28428;BME280;15662;49.128;8.520;2023-09-18T05:26:13;99625.72;;;25.68;53.78
28428;BME280;15662;49.128;8.520;2023-09-18T05:28:41;99635.72;;;25.67;53.88
28428;BME280;15662;49.128;8.520;2023-09-18T05:31:09;99637.44;;;25.68;53.99
28428;BME280;15662;49.128;8.520;2023-09-18T05:33:38;99641.84;;;25.69;53.90
28428;BME280;15662;49.128;8.520;2023-09-18T05:36:06;99631.00;;;25.69;54.01
28428;BME280;15662;49.128;8.520;2023-09-18T05:38:34;99628.81;;;25.73;54.14
28428;BME280;15662;49.128;8.520;2023-09-18T05:41:02;99647.66;;;25.74;53.91
28428;BME280;15662;49.128;8.520;2023-09-18T05:43:30;99655.97;;;25.73;54.17
28428;BME280;15662;49.128;8.520;2023-09-18T05:45:58;99662.03;;;25.67;54.20
28428;BME280;15662;49.128;8.520;2023-09-18T05:48:27;99691.47;;;25.62;54.58
28428;BME280;15662;49.128;8.520;2023-09-18T05:50:55;99690.81;;;25.50;54.53
28428;BME280;15662;49.128;8.520;2023-09-18T05:53:23;99692.97;;;25.46;54.87
28428;BME280;15662;49.128;8.520;2023-09-18T05:55:51;99689.56;;;25.44;54.85
28428;BME280;15662;49.128;8.520;2023-09-18T05:58:21;99687.69;;;25.45;54.87
28428;BME280;15662;49.128;8.520;2023-09-18T06:00:52;99682.28;;;25.45;54.72
28428;BME280;15662;49.128;8.520;2023-09-18T06:03:20;99668.56;;;25.46;54.85
28428;BME280;15662;49.128;8.520;2023-09-18T06:05:49;99673.69;;;25.50;54.89
28428;BME280;15662;49.128;8.520;2023-09-18T06:08:18;99695.09;;;25.53;54.84
28428;BME280;15662;49.128;8.520;2023-09-18T06:10:46;99703.09;;;25.54;54.93
28428;BME280;15662;49.128;8.520;2023-09-18T06:13:14;99711.06;;;25.56;55.03
28428;BME280;15662;49.128;8.520;2023-09-18T06:15:43;99710.06;;;25.57;54.92
28428;BME280;15662;49.128;8.520;2023-09-18T06:18:11;99722.31;;;25.61;54.80
28428;BME280;15662;49.128;8.520;2023-09-18T06:20:40;99724.16;;;25.60;55.16
28428;BME280;15662;49.128;8.520;2023-09-18T06:23:09;99732.59;;;25.67;55.10
28428;BME280;15662;49.128;8.520;2023-09-18T06:25:37;99732.72;;;25.65;54.98
28428;BME280;15662;49.128;8.520;2023-09-18T06:28:06;99723.72;;;25.65;55.19
28428;BME280;15662;49.128;8.520;2023-09-18T06:30:34;99716.75;;;25.62;54.95
28428;BME280;15662;49.128;8.520;2023-09-18T06:33:05;99709.47;;;25.63;54.95
28428;BME280;15662;49.128;8.520;2023-09-18T06:35:34;99710.88;;;25.67;55.09
28428;BME280;15662;49.128;8.520;2023-09-18T06:38:02;99721.56;;;25.68;55.11
28428;BME280;15662;49.128;8.520;2023-09-18T06:40:30;99731.25;;;25.71;55.08
28428;BME280;15662;49.128;8.520;2023-09-18T06:42:59;99741.97;;;25.72;55.09
28428;BME280;15662;49.128;8.520;2023-09-18T06:45:28;99747.53;;;25.71;55.17
28428;BME280;15662;49.128;8.520;2023-09-18T06:47:55;99767.25;;;25.73;55.13
28428;BME280;15662;49.128;8.520;2023-09-18T06:50:24;99751.81;;;25.73;55.33
28428;BME280;15662;49.128;8.520;2023-09-18T06:52:52;99746.25;;;25.75;55.34
28428;BME280;15662;49.128;8.520;2023-09-18T06:55:20;99755.53;;;25.72;55.49
28428;BME280;15662;49.128;8.520;2023-09-18T06:57:48;99753.13;;;25.69;55.20
28428;BME280;15662;49.128;8.520;2023-09-18T07:00:18;99765.69;;;25.70;55.28
28428;BME280;15662;49.128;8.520;2023-09-18T07:02:48;99776.69;;;25.69;55.56
28428;BME280;15662;49.128;8.520;2023-09-18T07:05:17;99777.72;;;25.68;55.37
28428;BME280;15662;49.128;8.520;2023-09-18T07:07:46;99784.28;;;25.65;55.75
28428;BME280;15662;49.128;8.520;2023-09-18T07:10:13;99796.16;;;25.64;55.55
28428;BME280;15662;49.128;8.520;2023-09-18T07:12:42;99796.84;;;25.66;55.41
28428;BME280;15662;49.128;8.520;2023-09-18T07:15:10;99792.56;;;25.64;55.62
28428;BME280;15662;49.128;8.520;2023-09-18T07:17:38;99796.59;;;25.60;55.74
28428;BME280;15662;49.128;8.520;2023-09-18T07:20:06;99790.03;;;25.62;55.75
28428;BME280;15662;49.128;8.520;2023-09-18T07:22:46;99791.72;;;25.63;55.85
28428;BME280;15662;49.128;8.520;2023-09-18T07:25:18;99783.88;;;25.60;55.83
28428;BME280;15662;49.128;8.520;2023-09-18T07:27:46;99789.88;;;25.64;55.71
28428;BME280;15662;49.128;8.520;2023-09-18T07:30:15;99795.28;;;25.64;55.61
28428;BME280;15662;49.128;8.520;2023-09-18T07:32:47;99801.00;;;25.61;55.99
28428;BME280;15662;49.128;8.520;2023-09-18T07:35:16;99793.19;;;25.58;55.83
28428;BME280;15662;49.128;8.520;2023-09-18T07:37:45;99793.88;;;25.60;55.73
28428;BME280;15662;49.128;8.520;2023-09-18T07:40:16;99786.75;;;25.59;55.58
28428;BME280;15662;49.128;8.520;2023-09-18T07:42:44;99796.75;;;25.58;55.77
28428;BME280;15662;49.128;8.520;2023-09-18T07:45:13;99800.59;;;25.56;55.35
28428;BME280;15662;49.128;8.520;2023-09-18T07:47:41;99809.59;;;25.56;55.41
28428;BME280;15662;49.128;8.520;2023-09-18T07:50:09;99800.59;;;25.56;55.18
28428;BME280;15662;49.128;8.520;2023-09-18T07:52:38;99811.47;;;25.56;55.42
28428;BME280;15662;49.128;8.520;2023-09-18T07:55:07;99811.34;;;25.57;55.36
28428;BME280;15662;49.128;8.520;2023-09-18T07:57:35;99821.47;;;25.55;55.28
28428;BME280;15662;49.128;8.520;2023-09-18T08:00:06;99807.75;;;25.57;54.96
28428;BME280;15662;49.128;8.520;2023-09-18T08:02:40;99808.75;;;25.56;54.69
28428;BME280;15662;49.128;8.520;2023-09-18T08:05:09;99816.75;;;25.57;54.65
28428;BME280;15662;49.128;8.520;2023-09-18T08:07:37;99823.03;;;25.58;54.76
28428;BME280;15662;49.128;8.520;2023-09-18T08:10:06;99813.88;;;25.59;54.31
28428;BME280;15662;49.128;8.520;2023-09-18T08:12:36;99811.34;;;25.57;54.62
28428;BME280;15662;49.128;8.520;2023-09-18T08:15:05;99817.28;;;25.61;54.39
28428;BME280;15662;49.128;8.520;2023-09-18T08:17:34;99793.88;;;25.60;54.50
28428;BME280;15662;49.128;8.520;2023-09-18T08:20:05;99800.28;;;25.68;54.04
28428;BME280;15662;49.128;8.520;2023-09-18T08:22:43;99791.97;;;25.70;54.15
28428;BME280;15662;49.128;8.520;2023-09-18T08:25:12;99780.97;;;25.71;54.06
28428;BME280;15662;49.128;8.520;2023-09-18T08:27:40;99774.25;;;25.76;54.07
28428;BME280;15662;49.128;8.520;2023-09-18T08:30:13;99756.09;;;25.76;53.93
28428;BME280;15662;49.128;8.520;2023-09-18T08:32:42;99754.81;;;25.80;53.75
28428;BME280;15662;49.128;8.520;2023-09-18T08:35:10;99767.38;;;25.81;53.81
28428;BME280;15662;49.128;8.520;2023-09-18T08:37:41;99771.66;;;25.84;53.71
28428;BME280;15662;49.128;8.520;2023-09-18T08:40:11;99756.50;;;25.81;53.72
28428;BME280;15662;49.128;8.520;2023-09-18T08:42:47;99763.34;;;25.85;53.71
28428;BME280;15662;49.128;8.520;2023-09-18T08:45:31;99775.78;;;25.88;53.36
28428;BME280;15662;49.128;8.520;2023-09-18T08:48:02;99769.22;;;25.81;53.65
28428;BME280;15662;49.128;8.520;2023-09-18T08:50:31;99786.22;;;25.83;53.38
28428;BME280;15662;49.128;8.520;2023-09-18T08:53:00;99783.53;;;25.83;53.35
28428;BME280;15662;49.128;8.520;2023-09-18T08:55:35;99781.50;;;25.85;53.20
28428;BME280;15662;49.128;8.520;2023-09-18T08:58:03;99783.34;;;25.84;53.26
28428;BME280;15662;49.128;8.520;2023-09-18T09:00:32;99787.31;;;25.90;53.38
28428;BME280;15662;49.128;8.520;2023-09-18T09:03:00;99782.63;;;25.92;53.00
28428;BME280;15662;49.128;8.520;2023-09-18T09:05:29;99802.16;;;25.95;52.96
28428;BME280;15662;49.128;8.520;2023-09-18T09:07:58;99807.28;;;25.98;52.90
28428;BME280;15662;49.128;8.520;2023-09-18T09:10:26;99802.41;;;26.02;53.13
28428;BME280;15662;49.128;8.520;2023-09-18T09:13:01;99811.81;;;26.08;53.07
28428;BME280;15662;49.128;8.520;2023-09-18T09:15:47;99818.50;;;26.13;52.66
28428;BME280;15662;49.128;8.520;2023-09-18T09:18:16;99824.09;;;26.12;52.80
28428;BME280;15662;49.128;8.520;2023-09-18T09:21:02;99819.34;;;26.14;52.68
28428;BME280;15662;49.128;8.520;2023-09-18T09:23:51;99826.00;;;26.19;52.58
28428;BME280;15662;49.128;8.520;2023-09-18T09:26:23;99840.63;;;26.18;52.84
28428;BME280;15662;49.128;8.520;2023-09-18T09:28:53;99852.03;;;26.22;52.59
28428;BME280;15662;49.128;8.520;2023-09-18T09:31:27;99861.72;;;26.24;52.43
28428;BME280;15662;49.128;8.520;2023-09-18T09:33:58;99867.47;;;26.21;52.30
28428;BME280;15662;49.128;8.520;2023-09-18T09:36:29;99854.03;;;26.20;52.37
28428;BME280;15662;49.128;8.520;2023-09-18T09:38:58;99843.72;;;26.23;52.45
28428;BME280;15662;49.128;8.520;2023-09-18T09:41:27;99833.41;;;26.27;52.31
28428;BME280;15662;49.128;8.520;2023-09-18T09:43:56;99829.53;;;26.30;52.15
28428;BME280;15662;49.128;8.520;2023-09-18T09:46:25;99823.97;;;26.31;51.94
28428;BME280;15662;49.128;8.520;2023-09-18T09:49:04;99814.47;;;26.35;51.64
28428;BME280;15662;49.128;8.520;2023-09-18T09:51:34;99823.63;;;26.34;51.79
28428;BME280;15662;49.128;8.520;2023-09-18T09:54:02;99823.50;;;26.36;51.57
28428;BME280;15662;49.128;8.520;2023-09-18T09:56:44;99838.47;;;26.40;51.56
28428;BME280;15662;49.128;8.520;2023-09-18T09:59:15;99830.63;;;26.37;51.54
28428;BME280;15662;49.128;8.520;2023-09-18T10:01:47;99827.75;;;26.38;51.55
28428;BME280;15662;49.128;8.520;2023-09-18T10:04:19;99818.31;;;26.42;51.17
28428;BME280;15662;49.128;8.520;2023-09-18T10:07:07;99818.88;;;26.46;51.30
28428;BME280;15662;49.128;8.520;2023-09-18T10:09:41;99821.44;;;26.47;51.32
28428;BME280;15662;49.128;8.520;2023-09-18T10:12:18;99822.97;;;26.50;50.91
28428;BME280;15662;49.128;8.520;2023-09-18T10:14:56;99825.53;;;26.52;51.13
28428;BME280;15662;49.128;8.520;2023-09-18T10:17:30;99826.09;;;26.55;51.03
28428;BME280;15662;49.128;8.520;2023-09-18T10:20:08;99833.47;;;26.63;50.60
28428;BME280;15662;49.128;8.520;2023-09-18T10:22:48;99840.97;;;26.69;50.67
28428;BME280;15662;49.128;8.520;2023-09-18T10:25:24;99850.72;;;26.71;50.61
28428;BME280;15662;49.128;8.520;2023-09-18T10:27:57;99826.78;;;26.75;50.49
28428;BME280;15662;49.128;8.520;2023-09-18T10:30:33;99829.19;;;26.78;50.32
28428;BME280;15662;49.128;8.520;2023-09-18T10:33:03;99839.59;;;26.83;50.23
28428;BME280;15662;49.128;8.520;2023-09-18T10:35:36;99818.03;;;26.89;50.03
28428;BME280;15662;49.128;8.520;2023-09-18T10:38:06;99830.19;;;26.95;49.85
28428;BME280;15662;49.128;8.520;2023-09-18T10:40:35;99840.72;;;26.98;49.74
28428;BME280;15662;49.128;8.520;2023-09-18T10:43:04;99832.44;;;26.99;49.72
28428;BME280;15662;49.128;8.520;2023-09-18T10:45:37;99822.06;;;27.03;49.81
28428;BME280;15662;49.128;8.520;2023-09-18T10:48:07;99824.34;;;27.08;49.40
28428;BME280;15662;49.128;8.520;2023-09-18T10:50:36;99825.75;;;27.12;49.20
28428;BME280;15662;49.128;8.520;2023-09-18T10:53:04;99817.97;;;27.17;49.29
28428;BME280;15662;49.128;8.520;2023-09-18T10:55:32;99822.75;;;27.23;49.11
28428;BME280;15662;49.128;8.520;2023-09-18T10:58:01;99823.00;;;27.30;49.21
28428;BME280;15662;49.128;8.520;2023-09-18T11:00:32;99820.47;;;27.36;48.84
28428;BME280;15662;49.128;8.520;2023-09-18T11:03:15;99814.38;;;27.42;48.43
28428;BME280;15662;49.128;8.520;2023-09-18T11:05:46;99808.94;;;27.42;48.60
28428;BME280;15662;49.128;8.520;2023-09-18T11:08:46;99810.84;;;27.50;48.10
28428;BME280;15662;49.128;8.520;2023-09-18T11:11:17;99820.56;;;27.52;48.29
28428;BME280;15662;49.128;8.520;2023-09-18T11:13:51;99819.03;;;27.58;48.14
28428;BME280;15662;49.128;8.520;2023-09-18T11:21:30;99805.88;;;27.71;47.69
28428;BME280;15662;49.128;8.520;2023-09-18T11:26:40;99820.88;;;27.75;47.86
28428;BME280;15662;49.128;8.520;2023-09-18T11:29:16;99824.63;;;27.83;47.56
28428;BME280;15662;49.128;8.520;2023-09-18T11:31:52;99839.31;;;27.90;47.08
28428;BME280;15662;49.128;8.520;2023-09-18T11:34:26;99839.50;;;27.96;46.91
28428;BME280;15662;49.128;8.520;2023-09-18T11:36:55;99843.09;;;27.97;46.42
28428;BME280;15662;49.128;8.520;2023-09-18T11:39:38;99828.97;;;28.01;46.33
28428;BME280;15662;49.128;8.520;2023-09-18T11:42:12;99836.66;;;28.06;46.08
28428;BME280;15662;49.128;8.520;2023-09-18T11:44:41;99836.47;;;28.08;46.19
28428;BME280;15662;49.128;8.520;2023-09-18T11:47:11;99843.00;;;28.15;45.75
28428;BME280;15662;49.128;8.520;2023-09-18T11:52:26;99831.44;;;28.29;45.73
28428;BME280;15662;49.128;8.520;2023-09-18T11:54:59;99833.38;;;28.37;45.47
28428;BME280;15662;49.128;8.520;2023-09-18T11:57:28;99835.09;;;28.38;45.20
28428;BME280;15662;49.128;8.520;2023-09-18T11:59:59;99837.13;;;28.44;45.54
28428;BME280;15662;49.128;8.520;2023-09-18T12:02:39;99834.25;;;28.45;45.73
28428;BME280;15662;49.128;8.520;2023-09-18T12:05:18;99832.38;;;28.54;45.10
28428;BME280;15662;49.128;8.520;2023-09-18T12:07:48;99838.69;;;28.54;44.67
28428;BME280;15662;49.128;8.520;2023-09-18T12:10:21;99834.59;;;28.59;44.96
28428;BME280;15662;49.128;8.520;2023-09-18T12:12:50;99837.50;;;28.65;44.70
28428;BME280;15662;49.128;8.520;2023-09-18T12:15:18;99835.28;;;28.69;44.39
28428;BME280;15662;49.128;8.520;2023-09-18T12:17:55;99824.91;;;28.72;44.14
28428;BME280;15662;49.128;8.520;2023-09-18T12:20:23;99828.31;;;28.74;44.17
28428;BME280;15662;49.128;8.520;2023-09-18T12:22:51;99831.19;;;28.81;44.26
28428;BME280;15662;49.128;8.520;2023-09-18T12:25:20;99830.69;;;28.86;43.82
28428;BME280;15662;49.128;8.520;2023-09-18T12:27:53;99838.38;;;28.90;44.08
28428;BME280;15662;49.128;8.520;2023-09-18T12:30:22;99837.88;;;28.95;43.60
28428;BME280;15662;49.128;8.520;2023-09-18T12:32:52;99834.97;;;28.96;43.71
28428;BME280;15662;49.128;8.520;2023-09-18T12:35:21;99836.53;;;28.99;43.14
28428;BME280;15662;49.128;8.520;2023-09-18T12:37:51;99840.25;;;29.06;43.38
28428;BME280;15662;49.128;8.520;2023-09-18T12:40:28;99836.34;;;29.09;42.80
28428;BME280;15662;49.128;8.520;2023-09-18T12:42:57;99833.94;;;29.05;42.85
28428;BME280;15662;49.128;8.520;2023-09-18T12:45:27;99832.59;;;29.10;42.86
28428;BME280;15662;49.128;8.520;2023-09-18T12:47:58;99830.72;;;29.10;42.43
28428;BME280;15662;49.128;8.520;2023-09-18T12:50:28;99835.50;;;29.08;42.37
28428;BME280;15662;49.128;8.520;2023-09-18T12:53:13;99836.69;;;29.14;42.21
28428;BME280;15662;49.128;8.520;2023-09-18T12:55:42;99823.75;;;29.08;42.60
28428;BME280;15662;49.128;8.520;2023-09-18T12:58:11;99831.75;;;29.17;42.20
28428;BME280;15662;49.128;8.520;2023-09-18T13:00:46;99829.50;;;29.21;41.89
28428;BME280;15662;49.128;8.520;2023-09-18T13:03:15;99825.91;;;29.20;41.71
28428;BME280;15662;49.128;8.520;2023-09-18T13:05:44;99830.38;;;29.21;41.88
28428;BME280;15662;49.128;8.520;2023-09-18T13:08:15;99815.53;;;29.24;41.94
28428;BME280;15662;49.128;8.520;2023-09-18T13:10:48;99813.47;;;29.26;41.69
28428;BME280;15662;49.128;8.520;2023-09-18T13:13:22;99816.69;;;29.29;41.85
28428;BME280;15662;49.128;8.520;2023-09-18T13:15:50;99815.66;;;29.30;41.65
28428;BME280;15662;49.128;8.520;2023-09-18T13:18:23;99814.47;;;29.33;41.51
28428;BME280;15662;49.128;8.520;2023-09-18T13:20:53;99806.44;;;29.40;41.59
28428;BME280;15662;49.128;8.520;2023-09-18T13:23:31;99791.09;;;29.39;41.50
28428;BME280;15662;49.128;8.520;2023-09-18T13:26:01;99801.81;;;29.40;41.47
28428;BME280;15662;49.128;8.520;2023-09-18T13:28:31;99806.44;;;29.40;41.24